createdAt,value
2022-11-27T00:04:40.100Z,102479.69
2022-11-27T00:09:38.468Z,102431.94
2022-11-27T00:14:35.717Z,102442.38
2022-11-27T00:19:33.434Z,102471.03
2022-11-27T00:24:30.361Z,102476.22
2022-11-27T00:29:28.698Z,102491.91
2022-11-27T00:34:25.974Z,102506.69
2022-11-27T00:39:22.940Z,102484.94
2022-11-27T00:44:19.881Z,102490.13
2022-11-27T00:49:17.855Z,102515.31
2022-11-27T00:54:14.763Z,102485.75
2022-11-27T00:59:12.039Z,102506.63
2022-11-27T01:04:12.260Z,102510.06
2022-11-27T01:09:12.654Z,102479.69
2022-11-27T01:14:14.328Z,102484.06
2022-11-27T01:19:13.472Z,102513.56
2022-11-27T01:24:13.405Z,102517.06
2022-11-27T01:29:11.290Z,102513.53
2022-11-27T01:34:12.962Z,102523.09
2022-11-27T01:39:15.501Z,102517.00
2022-11-27T01:44:48.761Z,102521.31
2022-11-27T01:49:51.942Z,102449.28
2022-11-27T01:54:54.079Z,102501.31
2022-11-27T01:59:54.495Z,102506.50
2022-11-27T02:04:52.353Z,102480.44
2022-11-27T02:09:50.489Z,102511.69
2022-11-27T02:14:55.587Z,102508.22
2022-11-27T02:20:07.964Z,102487.34
2022-11-27T02:25:13.733Z,102498.66
2022-11-27T02:30:12.708Z,102510.81
2022-11-27T02:35:18.292Z,102483.88
2022-11-27T02:40:20.272Z,102508.19
2022-11-27T02:45:23.799Z,102482.13
2022-11-27T02:50:24.746Z,102495.97
2022-11-27T02:55:26.452Z,102410.13
2022-11-27T03:00:24.767Z,102404.94
2022-11-27T03:05:23.944Z,102507.31
2022-11-27T03:10:26.914Z,102513.41
2022-11-27T03:15:28.988Z,102506.47
2022-11-27T03:20:27.902Z,102472.63
2022-11-27T03:25:25.933Z,102509.06
2022-11-27T03:30:22.811Z,102509.94
2022-11-27T03:35:25.712Z,102508.19
2022-11-27T03:40:30.495Z,102496.94
2022-11-27T03:45:35.593Z,102527.34
2022-11-27T03:50:43.218Z,102514.31
2022-11-27T03:55:55.642Z,102524.75
2022-11-27T04:00:56.139Z,102451.78
2022-11-27T04:05:54.043Z,102500.41
2022-11-27T04:10:51.004Z,102527.28
2022-11-27T04:15:48.004Z,102514.25
2022-11-27T04:20:47.993Z,102470.00
2022-11-27T04:25:45.831Z,102514.28
2022-11-27T04:30:43.022Z,102437.91
2022-11-27T04:35:40.002Z,102524.66
2022-11-27T04:40:36.957Z,102534.22
2022-11-27T04:45:34.855Z,102489.06
2022-11-27T04:50:31.915Z,102513.38
2022-11-27T04:55:28.884Z,102519.47
2022-11-27T05:00:25.971Z,102525.50
2022-11-27T05:05:23.817Z,102462.16
2022-11-27T05:10:20.780Z,102520.34
2022-11-27T05:15:17.784Z,102528.97
2022-11-27T05:20:14.770Z,102515.06
2022-11-27T05:25:12.896Z,102427.47
2022-11-27T05:30:10.510Z,102534.16
2022-11-27T05:35:08.038Z,102489.06
2022-11-27T05:40:06.848Z,102497.72
2022-11-27T05:45:05.616Z,102533.31
2022-11-27T05:50:03.019Z,102542.00
2022-11-27T05:55:02.948Z,102543.75
2022-11-27T05:59:59.994Z,102444.84
2022-11-27T06:04:57.928Z,102507.25
2022-11-27T06:09:56.275Z,102535.03
2022-11-27T06:14:53.320Z,102455.19
2022-11-27T06:19:51.095Z,102560.09
2022-11-27T06:24:50.156Z,102546.13
2022-11-27T06:29:50.119Z,102467.03
2022-11-27T06:34:47.481Z,102573.63
2022-11-27T06:39:48.384Z,102494.50
2022-11-27T06:44:47.052Z,102560.28
2022-11-27T06:56:30.392Z,102442.25
2022-11-27T07:01:54.211Z,102506.25
2022-11-27T07:06:54.948Z,102493.25
2022-11-27T07:11:52.440Z,102538.38
2022-11-27T07:16:49.660Z,102547.72
2022-11-27T07:21:47.811Z,102512.13
2022-11-27T07:26:44.997Z,102554.50
2022-11-27T07:31:42.269Z,102492.78
2022-11-27T07:36:46.717Z,102461.66
2022-11-27T07:41:44.624Z,102523.13
2022-11-27T07:46:44.971Z,102479.63
2022-11-27T07:51:42.117Z,102501.19
2022-11-27T07:56:39.407Z,102548.84
2022-11-27T08:01:37.167Z,102573.00
2022-11-27T08:06:34.403Z,102574.66
2022-11-27T08:11:34.630Z,102546.88
2022-11-27T08:16:35.638Z,102543.25
2022-11-27T08:21:33.533Z,102523.22
2022-11-27T08:26:32.526Z,102592.56
2022-11-27T08:31:31.793Z,102584.63
2022-11-27T08:36:29.028Z,102531.69
2022-11-27T08:41:42.203Z,102520.38
2022-11-27T08:46:46.935Z,102569.72
2022-11-27T08:51:48.534Z,102565.31
2022-11-27T08:56:46.488Z,102568.66
2022-11-27T09:01:46.019Z,102553.88
2022-11-27T09:06:43.879Z,102589.28
2022-11-27T09:11:41.879Z,102555.31
2022-11-27T09:16:39.937Z,102533.38
2022-11-27T09:21:43.030Z,102534.91
2022-11-27T09:26:42.677Z,102498.47
2022-11-27T09:31:52.651Z,102532.19
2022-11-27T09:36:54.715Z,102527.75
2022-11-27T09:42:15.474Z,102543.16
2022-11-27T09:47:31.128Z,102550.09
2022-11-27T09:52:36.851Z,102414.06
2022-11-27T09:57:36.555Z,102538.53
2022-11-27T10:02:35.601Z,102489.09
2022-11-27T10:07:42.101Z,102415.47
2022-11-27T10:12:51.891Z,102535.59
2022-11-27T10:17:58.059Z,102500.06
2022-11-27T10:23:00.313Z,102520.59
2022-11-27T10:28:06.796Z,102480.59
2022-11-27T10:33:18.282Z,102492.72
2022-11-27T10:38:22.155Z,102477.13
2022-11-27T10:43:21.230Z,102509.16
2022-11-27T10:48:19.865Z,102408.75
2022-11-27T10:53:25.702Z,102495.28
2022-11-27T10:58:31.103Z,102496.94
2022-11-27T11:03:28.701Z,102489.63
2022-11-27T11:08:28.302Z,102390.78
2022-11-27T11:13:27.423Z,102483.03
2022-11-27T11:18:30.412Z,102381.72
2022-11-27T11:23:31.634Z,102350.41
2022-11-27T11:28:29.245Z,102346.03
2022-11-27T11:33:28.082Z,102341.66
2022-11-27T11:38:31.369Z,102362.47
2022-11-27T11:43:29.614Z,102394.34
2022-11-27T11:48:27.857Z,102387.56
2022-11-27T11:53:39.448Z,102439.28
2022-11-27T11:58:50.747Z,102424.38
2022-11-27T12:04:07.528Z,102390.00
2022-11-27T12:09:21.030Z,102429.03
2022-11-27T12:14:27.683Z,102418.56
2022-11-27T12:19:47.109Z,102326.09
2022-11-27T12:24:54.812Z,102364.22
2022-11-27T12:30:06.472Z,102387.59
2022-11-27T12:35:33.970Z,102341.84
2022-11-27T12:40:45.189Z,102405.91
2022-11-27T12:45:53.135Z,102331.50
2022-11-27T12:51:02.196Z,102377.38
2022-11-27T12:56:09.549Z,102388.63
2022-11-27T13:01:11.372Z,102385.94
2022-11-27T13:06:12.046Z,102361.09
2022-11-27T13:11:13.856Z,102340.41
2022-11-27T13:16:18.796Z,102401.88
2022-11-27T13:21:19.755Z,102302.59
2022-11-27T13:26:26.127Z,102309.63
2022-11-27T13:31:29.790Z,102352.00
2022-11-27T13:36:34.698Z,102282.94
2022-11-27T13:41:39.742Z,102378.16
2022-11-27T13:46:47.925Z,102376.63
2022-11-27T13:51:45.285Z,102357.72
2022-11-27T13:56:43.102Z,102292.19
2022-11-27T14:01:40.734Z,102395.19
2022-11-27T14:06:42.560Z,102298.53
2022-11-27T14:11:43.989Z,102367.88
2022-11-27T14:16:42.185Z,102355.75
2022-11-27T14:21:42.247Z,102399.13
2022-11-27T14:26:41.637Z,102336.00
2022-11-27T14:31:39.190Z,102363.75
2022-11-27T14:36:36.985Z,102386.31
2022-11-27T14:41:34.582Z,102389.03
2022-11-27T14:46:34.330Z,102338.91
2022-11-27T14:51:34.535Z,102330.28
2022-11-27T14:56:34.509Z,102347.59
2022-11-27T15:01:33.438Z,102374.41
2022-11-27T15:06:36.779Z,102359.75
2022-11-27T15:11:56.266Z,102385.03
2022-11-27T15:16:57.361Z,102272.56
2022-11-27T15:21:54.610Z,102385.97
2022-11-27T15:26:55.094Z,102347.03
2022-11-27T15:31:53.526Z,102342.75
2022-11-27T15:36:58.427Z,102338.53
2022-11-27T15:41:58.531Z,102396.59
2022-11-27T15:47:01.461Z,102389.59
2022-11-27T15:51:58.823Z,102398.34
2022-11-27T15:56:57.147Z,102273.59
2022-11-27T16:01:55.349Z,102383.63
2022-11-27T16:06:52.465Z,102356.78
2022-11-27T16:11:55.708Z,102376.63
2022-11-27T16:17:00.838Z,102376.78
2022-11-27T16:21:58.994Z,102377.56
2022-11-27T16:26:56.588Z,102278.09
2022-11-27T16:32:06.657Z,102304.00
2022-11-27T16:37:07.566Z,102336.91
2022-11-27T16:42:13.413Z,102354.31
2022-11-27T16:47:12.106Z,102338.69
2022-11-27T16:52:10.184Z,102341.28
2022-11-27T16:57:07.560Z,102350.88
2022-11-27T17:02:04.970Z,102351.75
2022-11-27T17:07:03.070Z,102349.06
2022-11-27T17:11:59.967Z,102356.09
2022-11-27T17:16:57.693Z,102339.59
2022-11-27T17:22:13.340Z,102323.91
2022-11-27T17:27:21.260Z,102388.00
2022-11-27T17:32:21.105Z,102372.25
2022-11-27T17:37:34.359Z,102344.53
2022-11-27T17:42:32.732Z,102287.28
2022-11-27T17:47:34.780Z,102284.75
2022-11-27T17:52:43.841Z,102338.44
2022-11-27T17:58:37.392Z,102273.50
2022-11-27T18:04:13.710Z,102250.13
2022-11-27T18:09:12.686Z,102335.00
2022-11-27T18:15:07.444Z,102216.53
2022-11-27T18:20:08.794Z,102297.78
2022-11-27T18:25:07.305Z,102324.59
2022-11-27T18:30:05.761Z,102324.53
2022-11-27T18:40:23.450Z,102228.56
2022-11-27T18:45:32.781Z,102325.59
2022-11-27T18:50:43.169Z,102270.19
2022-11-27T18:55:48.862Z,102278.75
2022-11-27T19:01:19.137Z,102319.41
2022-11-27T19:06:28.080Z,102319.56
2022-11-27T19:11:30.270Z,102343.91
2022-11-27T19:16:31.384Z,102355.34
2022-11-27T19:21:31.862Z,102309.56
2022-11-27T19:26:31.810Z,102311.44
2022-11-27T19:31:33.711Z,102291.56
2022-11-27T19:36:42.994Z,102310.72
2022-11-27T19:41:42.113Z,102257.16
2022-11-27T19:46:39.646Z,102362.75
2022-11-27T19:51:38.503Z,102321.13
2022-11-27T19:56:37.903Z,102306.41
2022-11-27T20:01:38.677Z,102311.47
2022-11-27T20:06:46.232Z,102348.59
2022-11-27T20:11:43.564Z,102336.38
2022-11-27T20:16:46.255Z,102244.53
2022-11-27T20:21:43.365Z,102297.28
2022-11-27T20:26:44.510Z,102361.34
2022-11-27T20:31:46.336Z,102321.44
2022-11-27T20:36:46.269Z,102310.22
2022-11-27T20:41:54.291Z,102343.16
2022-11-27T20:46:54.787Z,102335.38
2022-11-27T20:51:54.755Z,102339.78
2022-11-27T20:56:53.734Z,102355.31
2022-11-27T21:11:55.833Z,102351.09
2022-11-27T21:16:53.820Z,102326.06
2022-11-27T21:21:55.773Z,102351.97
2022-11-27T21:26:55.731Z,102286.41
2022-11-27T21:31:56.434Z,102239.03
2022-11-27T21:36:53.859Z,102346.50
2022-11-27T21:41:52.993Z,102291.97
2022-11-27T21:46:50.672Z,102323.88
2022-11-27T21:51:52.086Z,102335.00
2022-11-27T21:56:52.074Z,102301.25
2022-11-27T22:01:49.065Z,102258.94
2022-11-27T22:06:46.549Z,102293.78
2022-11-27T22:11:45.000Z,102288.09
2022-11-27T22:16:45.664Z,102314.16
2022-11-27T22:21:44.392Z,102271.81
2022-11-27T22:26:41.481Z,102317.09
2022-11-27T22:31:39.029Z,102309.44
2022-11-27T22:36:36.293Z,102256.63
2022-11-27T22:41:36.924Z,102299.16
2022-11-27T22:46:35.519Z,102290.34
2022-11-27T22:51:35.166Z,102290.25
2022-11-27T22:56:33.265Z,102272.88
2022-11-27T23:01:30.591Z,102285.09
2022-11-27T23:06:27.631Z,102274.84
2022-11-27T23:11:29.474Z,102277.63
2022-11-27T23:16:29.406Z,102151.28
2022-11-27T23:21:26.624Z,102267.31
2022-11-27T23:26:24.675Z,102280.19
2022-11-27T23:31:31.675Z,102276.56
2022-11-27T23:36:30.558Z,102236.81
2022-11-27T23:41:28.705Z,102184.91
2022-11-27T23:46:28.405Z,102208.34
2022-11-27T23:51:27.234Z,102250.88
2022-11-27T23:56:25.991Z,102231.00
